createdAt,value
2023-05-10T00:00:45.632Z,999.37
2023-05-10T00:01:45.596Z,999.37
2023-05-10T00:02:45.741Z,999.38
2023-05-10T00:03:45.669Z,999.38
2023-05-10T00:04:45.547Z,999.38
2023-05-10T00:05:45.554Z,999.39
2023-05-10T00:06:45.571Z,999.38
2023-05-10T00:07:45.562Z,999.38
2023-05-10T00:08:45.552Z,999.41
2023-05-10T00:09:45.493Z,999.41
2023-05-10T00:10:45.491Z,999.41
2023-05-10T00:11:45.501Z,999.42
2023-05-10T00:12:45.509Z,999.42
2023-05-10T00:13:45.504Z,999.43
2023-05-10T00:14:45.454Z,999.44
2023-05-10T00:15:45.465Z,999.45
2023-05-10T00:16:45.538Z,999.45
2023-05-10T00:17:45.442Z,999.46
2023-05-10T00:18:45.448Z,999.46
2023-05-10T00:19:45.401Z,999.46
2023-05-10T00:20:45.446Z,999.48
2023-05-10T00:21:45.393Z,999.48
2023-05-10T00:22:45.366Z,999.49
2023-05-10T00:23:45.376Z,999.49
2023-05-10T00:24:45.366Z,999.49
2023-05-10T00:25:45.359Z,999.50
2023-05-10T00:26:45.375Z,999.51
2023-05-10T00:27:45.338Z,999.50
2023-05-10T00:28:46.058Z,999.51
2023-05-10T00:29:45.310Z,999.51
2023-05-10T00:30:45.279Z,999.51
2023-05-10T00:31:45.355Z,999.50
2023-05-10T00:32:45.314Z,999.50
2023-05-10T00:33:45.257Z,999.51
2023-05-10T00:34:45.252Z,999.52
2023-05-10T00:35:45.231Z,999.53
2023-05-10T00:36:45.250Z,999.53
2023-05-10T00:37:45.263Z,999.54
2023-05-10T00:38:45.256Z,999.55
2023-05-10T00:39:45.188Z,999.57
2023-05-10T00:40:45.221Z,999.57
2023-05-10T00:41:45.206Z,999.58
2023-05-10T00:42:45.283Z,999.58
2023-05-10T00:43:45.212Z,999.58
2023-05-10T00:44:45.231Z,999.59
2023-05-10T00:45:45.254Z,999.58
2023-05-10T00:46:45.288Z,999.58
2023-05-10T00:47:45.166Z,999.58
2023-05-10T00:48:45.126Z,999.59
2023-05-10T00:49:45.162Z,999.59
2023-05-10T00:50:45.160Z,999.59
2023-05-10T00:51:45.173Z,999.60
2023-05-10T00:52:45.128Z,999.61
2023-05-10T00:53:45.156Z,999.62
2023-05-10T00:54:45.085Z,999.63
2023-05-10T00:55:45.035Z,999.63
2023-05-10T00:56:45.021Z,999.62
2023-05-10T00:57:45.007Z,999.61
2023-05-10T00:58:44.988Z,999.61
2023-05-10T00:59:44.999Z,999.61
2023-05-10T01:00:45.024Z,999.61
2023-05-10T01:01:45.215Z,999.60
2023-05-10T01:02:45.025Z,999.59
2023-05-10T01:03:44.986Z,999.57
2023-05-10T01:04:44.987Z,999.55
2023-05-10T01:05:44.981Z,999.54
2023-05-10T01:06:44.982Z,999.53
2023-05-10T01:07:44.890Z,999.52
2023-05-10T01:08:44.902Z,999.52
2023-05-10T01:09:44.878Z,999.53
2023-05-10T01:10:44.908Z,999.54
2023-05-10T01:11:44.965Z,999.55
2023-05-10T01:12:44.920Z,999.56
2023-05-10T01:13:44.851Z,999.58
2023-05-10T01:14:44.849Z,999.59
2023-05-10T01:15:44.856Z,999.60
2023-05-10T01:16:44.900Z,999.60
2023-05-10T01:17:44.861Z,999.60
2023-05-10T01:18:44.793Z,999.60
2023-05-10T01:19:44.836Z,999.59
2023-05-10T01:20:44.779Z,999.59
2023-05-10T01:21:44.770Z,999.59
2023-05-10T01:22:44.783Z,999.59
2023-05-10T01:23:44.780Z,999.60
2023-05-10T01:24:44.747Z,999.61
2023-05-10T01:25:44.726Z,999.62
2023-05-10T01:26:44.861Z,999.63
2023-05-10T01:27:44.744Z,999.64
2023-05-10T01:28:44.692Z,999.64
2023-05-10T01:29:44.703Z,999.64
2023-05-10T01:30:44.704Z,999.64
2023-05-10T01:31:44.742Z,999.63
2023-05-10T01:32:44.715Z,999.64
2023-05-10T01:33:44.670Z,999.66
2023-05-10T01:34:44.664Z,999.66
2023-05-10T01:35:44.639Z,999.67
2023-05-10T01:36:44.666Z,999.66
2023-05-10T01:37:44.626Z,999.65
2023-05-10T01:38:44.645Z,999.63
2023-05-10T01:39:44.591Z,999.63
2023-05-10T01:40:44.585Z,999.60
2023-05-10T01:41:44.552Z,999.60
2023-05-10T01:42:44.560Z,999.60
2023-05-10T01:43:44.552Z,999.60
2023-05-10T01:44:44.567Z,999.59
2023-05-10T01:45:44.516Z,999.60
2023-05-10T01:46:44.575Z,999.60
2023-05-10T01:47:44.515Z,999.63
2023-05-10T01:48:44.495Z,999.64
2023-05-10T01:49:44.464Z,999.66
2023-05-10T01:50:44.501Z,999.68
2023-05-10T01:51:44.482Z,999.70
2023-05-10T01:52:44.449Z,999.72
2023-05-10T01:53:44.445Z,999.74
2023-05-10T01:54:44.420Z,999.75
2023-05-10T01:55:44.411Z,999.75
2023-05-10T01:56:44.404Z,999.74
2023-05-10T01:57:44.388Z,999.74
2023-05-10T01:58:44.618Z,999.74
2023-05-10T01:59:44.396Z,999.76
2023-05-10T02:00:44.406Z,999.78
2023-05-10T02:01:44.378Z,999.80
2023-05-10T02:02:44.375Z,999.81
2023-05-10T02:03:44.398Z,999.82
2023-05-10T02:04:44.329Z,999.85
2023-05-10T02:05:44.330Z,999.86
2023-05-10T02:06:44.299Z,999.87
2023-05-10T02:07:44.326Z,999.87
2023-05-10T02:08:44.296Z,999.88
2023-05-10T02:09:44.274Z,999.89
2023-05-10T02:10:44.264Z,999.89
2023-05-10T02:11:44.235Z,999.90
2023-05-10T02:12:44.307Z,999.91
2023-05-10T02:13:44.228Z,999.92
2023-05-10T02:14:44.213Z,999.93
2023-05-10T02:15:44.191Z,999.93
2023-05-10T02:16:44.269Z,999.94
2023-05-10T02:17:44.215Z,999.94
2023-05-10T02:18:44.232Z,999.95
2023-05-10T02:19:44.247Z,999.96
2023-05-10T02:20:44.156Z,999.95
2023-05-10T02:21:44.279Z,999.95
2023-05-10T02:22:44.135Z,999.95
2023-05-10T02:23:44.171Z,999.95
2023-05-10T02:24:44.149Z,999.95
2023-05-10T02:25:44.101Z,999.95
2023-05-10T02:26:44.086Z,999.95
2023-05-10T02:27:44.085Z,999.95
2023-05-10T02:28:44.099Z,999.94
2023-05-10T02:29:44.107Z,999.94
2023-05-10T02:30:44.056Z,999.94
2023-05-10T02:31:44.088Z,999.96
2023-05-10T02:32:44.066Z,999.98
2023-05-10T02:33:44.048Z,999.99
2023-05-10T02:34:44.008Z,1000.00
2023-05-10T02:35:44.007Z,1000.00
2023-05-10T02:36:44.028Z,1000.01
2023-05-10T02:37:44.022Z,1000.02
2023-05-10T02:38:43.962Z,1000.02
2023-05-10T02:39:43.955Z,1000.02
2023-05-10T02:40:43.971Z,1000.01
2023-05-10T02:41:43.928Z,1000.01
2023-05-10T02:42:44.016Z,1000.00
2023-05-10T02:43:43.891Z,999.99
2023-05-10T02:44:43.904Z,1000.00
2023-05-10T02:45:43.919Z,999.99
2023-05-10T02:46:43.866Z,1000.01
2023-05-10T02:47:43.932Z,1000.01
2023-05-10T02:48:43.908Z,1000.01
2023-05-10T02:49:43.859Z,1000.01
2023-05-10T02:50:43.845Z,1000.03
2023-05-10T02:51:43.818Z,1000.02
2023-05-10T02:52:43.862Z,1000.03
2023-05-10T02:53:43.802Z,1000.04
2023-05-10T02:54:43.794Z,1000.05
2023-05-10T02:55:43.828Z,1000.06
2023-05-10T02:56:43.803Z,1000.05
2023-05-10T02:57:43.988Z,1000.03
2023-05-10T02:58:43.797Z,1000.03
2023-05-10T02:59:43.869Z,1000.02
2023-05-10T03:00:43.737Z,1000.03
2023-05-10T03:01:43.811Z,1000.03
2023-05-10T03:02:44.111Z,1000.05
2023-05-10T03:03:43.789Z,1000.05
2023-05-10T03:04:43.759Z,1000.06
2023-05-10T03:05:43.667Z,1000.06
2023-05-10T03:06:43.711Z,1000.08
2023-05-10T03:07:43.669Z,1000.08
2023-05-10T03:08:43.651Z,1000.09
2023-05-10T03:09:43.671Z,1000.11
2023-05-10T03:10:43.628Z,1000.10
2023-05-10T03:11:43.650Z,1000.11
2023-05-10T03:12:43.663Z,1000.12
2023-05-10T03:13:43.628Z,1000.13
2023-05-10T03:14:43.653Z,1000.13
2023-05-10T03:15:43.667Z,1000.13
2023-05-10T03:16:45.033Z,1000.12
2023-05-10T03:17:43.678Z,1000.14
2023-05-10T03:18:43.562Z,1000.14
2023-05-10T03:19:43.590Z,1000.12
2023-05-10T03:20:43.495Z,1000.11
2023-05-10T03:21:43.510Z,1000.10
2023-05-10T03:22:43.520Z,1000.10
2023-05-10T03:23:43.538Z,1000.10
2023-05-10T03:24:43.480Z,1000.11
2023-05-10T03:25:43.462Z,1000.11
2023-05-10T03:26:43.429Z,1000.11
2023-05-10T03:27:43.415Z,1000.10
2023-05-10T03:28:43.415Z,1000.10
2023-05-10T03:29:43.363Z,1000.09
2023-05-10T03:30:43.393Z,1000.09
2023-05-10T03:31:43.470Z,1000.09
2023-05-10T03:32:43.530Z,1000.10
2023-05-10T03:33:43.411Z,1000.13
2023-05-10T03:34:43.331Z,1000.15
2023-05-10T03:35:43.349Z,1000.18
2023-05-10T03:36:43.322Z,1000.19
2023-05-10T03:37:43.313Z,1000.21
2023-05-10T03:38:43.327Z,1000.23
2023-05-10T03:39:43.378Z,1000.24
2023-05-10T03:40:43.279Z,1000.25
2023-05-10T03:41:43.238Z,1000.26
2023-05-10T03:42:43.290Z,1000.26
2023-05-10T03:43:43.359Z,1000.27
2023-05-10T03:44:43.305Z,1000.27
2023-05-10T03:45:44.083Z,1000.27
2023-05-10T03:46:43.261Z,1000.28
2023-05-10T03:47:43.207Z,1000.29
2023-05-10T03:48:43.298Z,1000.29
2023-05-10T03:49:43.242Z,1000.30
2023-05-10T03:50:43.173Z,1000.31
2023-05-10T03:51:43.164Z,1000.31
2023-05-10T03:52:43.180Z,1000.31
2023-05-10T03:53:43.112Z,1000.31
2023-05-10T03:54:43.120Z,1000.32
2023-05-10T03:55:43.108Z,1000.32
2023-05-10T03:56:43.101Z,1000.32
2023-05-10T03:57:43.141Z,1000.31
2023-05-10T03:58:43.104Z,1000.30
2023-05-10T03:59:43.062Z,1000.28
2023-05-10T04:00:43.057Z,1000.25
2023-05-10T04:01:43.109Z,1000.23
2023-05-10T04:02:43.264Z,1000.23
2023-05-10T04:03:43.090Z,1000.23
2023-05-10T04:04:43.089Z,1000.25
2023-05-10T04:05:43.029Z,1000.28
2023-05-10T04:06:43.042Z,1000.29
2023-05-10T04:07:43.045Z,1000.30
2023-05-10T04:08:43.192Z,1000.29
2023-05-10T04:09:42.965Z,1000.29
2023-05-10T04:10:42.958Z,1000.27
2023-05-10T04:11:42.950Z,1000.26
2023-05-10T04:12:42.985Z,1000.26
2023-05-10T04:13:42.944Z,1000.28
2023-05-10T04:14:42.896Z,1000.28
2023-05-10T04:15:42.910Z,1000.29
2023-05-10T04:16:42.944Z,1000.30
2023-05-10T04:17:42.996Z,1000.30
2023-05-10T04:18:42.896Z,1000.29
2023-05-10T04:19:42.879Z,1000.30
2023-05-10T04:20:42.842Z,1000.32
2023-05-10T04:21:42.838Z,1000.34
2023-05-10T04:22:42.882Z,1000.37
2023-05-10T04:23:42.855Z,1000.39
2023-05-10T04:24:42.813Z,1000.41
2023-05-10T04:25:42.864Z,1000.42
2023-05-10T04:26:42.792Z,1000.41
2023-05-10T04:27:42.787Z,1000.40
2023-05-10T04:28:42.784Z,1000.40
2023-05-10T04:29:42.852Z,1000.41
2023-05-10T04:30:42.767Z,1000.41
2023-05-10T04:31:42.767Z,1000.41
2023-05-10T04:32:42.745Z,1000.44
2023-05-10T04:33:42.789Z,1000.44
2023-05-10T04:34:42.720Z,1000.46
2023-05-10T04:35:42.695Z,1000.46
2023-05-10T04:36:42.726Z,1000.47
2023-05-10T04:37:42.671Z,1000.47
2023-05-10T04:38:42.694Z,1000.47
2023-05-10T04:39:42.688Z,1000.48
2023-05-10T04:40:42.643Z,1000.50
2023-05-10T04:41:42.628Z,1000.54
2023-05-10T04:42:42.626Z,1000.57
2023-05-10T04:43:42.664Z,1000.59
2023-05-10T04:44:42.652Z,1000.62
2023-05-10T04:45:42.582Z,1000.62
2023-05-10T04:46:42.677Z,1000.63
2023-05-10T04:47:42.617Z,1000.64
2023-05-10T04:48:42.612Z,1000.64
2023-05-10T04:49:42.589Z,1000.66
2023-05-10T04:50:42.585Z,1000.67
2023-05-10T04:51:42.528Z,1000.67
2023-05-10T04:52:42.534Z,1000.68
2023-05-10T04:53:46.491Z,1000.69
2023-05-10T04:54:42.508Z,1000.70
2023-05-10T04:55:42.504Z,1000.68
2023-05-10T04:56:42.527Z,1000.68
2023-05-10T04:57:42.540Z,1000.68
2023-05-10T04:58:42.453Z,1000.68
2023-05-10T04:59:42.477Z,1000.67
2023-05-10T05:00:42.422Z,1000.66
2023-05-10T05:01:42.635Z,1000.65
2023-05-10T05:02:42.574Z,1000.63
2023-05-10T05:03:42.519Z,1000.60
2023-05-10T05:04:42.399Z,1000.59
2023-05-10T05:05:43.020Z,1000.60
2023-05-10T05:06:42.390Z,1000.60
2023-05-10T05:07:42.594Z,1000.58
2023-05-10T05:08:42.364Z,1000.58
2023-05-10T05:09:42.381Z,1000.58
2023-05-10T05:10:42.335Z,1000.56
2023-05-10T05:11:42.356Z,1000.55
2023-05-10T05:12:42.452Z,1000.53
2023-05-10T05:13:42.336Z,1000.53
2023-05-10T05:14:42.320Z,1000.54
2023-05-10T05:15:42.272Z,1000.54
2023-05-10T05:16:42.409Z,1000.55
2023-05-10T05:17:42.290Z,1000.55
2023-05-10T05:18:42.243Z,1000.59
2023-05-10T05:19:42.342Z,1000.58
2023-05-10T05:20:42.263Z,1000.60
2023-05-10T05:21:42.234Z,1000.62
2023-05-10T05:22:42.191Z,1000.63
2023-05-10T05:23:42.224Z,1000.64
2023-05-10T05:24:42.200Z,1000.65
2023-05-10T05:25:42.189Z,1000.67
2023-05-10T05:26:42.154Z,1000.68
2023-05-10T05:27:42.191Z,1000.70
2023-05-10T05:28:42.172Z,1000.71
2023-05-10T05:29:42.266Z,1000.72
2023-05-10T05:30:42.135Z,1000.72
2023-05-10T05:31:42.260Z,1000.72
2023-05-10T05:32:42.145Z,1000.72
2023-05-10T05:33:42.099Z,1000.73
2023-05-10T05:34:43.007Z,1000.74
2023-05-10T05:35:42.069Z,1000.76
2023-05-10T05:36:42.098Z,1000.76
2023-05-10T05:37:42.065Z,1000.78
2023-05-10T05:38:42.234Z,1000.79
2023-05-10T05:39:42.033Z,1000.79
2023-05-10T05:40:42.209Z,1000.80
2023-05-10T05:41:41.999Z,1000.80
2023-05-10T05:42:41.997Z,1000.80
2023-05-10T05:43:42.007Z,1000.82
2023-05-10T05:44:41.965Z,1000.82
2023-05-10T05:45:42.030Z,1000.81
2023-05-10T05:46:41.938Z,1000.80
2023-05-10T05:47:41.949Z,1000.80
2023-05-10T05:48:42.050Z,1000.81
2023-05-10T05:49:41.928Z,1000.81
2023-05-10T05:50:41.959Z,1000.83
2023-05-10T05:51:41.896Z,1000.83
2023-05-10T05:52:41.902Z,1000.85
2023-05-10T05:53:41.874Z,1000.85
2023-05-10T05:54:41.864Z,1000.86
2023-05-10T05:55:41.898Z,1000.87
2023-05-10T05:56:41.842Z,1000.89
2023-05-10T05:57:41.877Z,1000.91
2023-05-10T05:58:41.835Z,1000.92
2023-05-10T05:59:41.815Z,1000.94
2023-05-10T06:00:41.880Z,1000.95
2023-05-10T06:01:41.856Z,1000.97
2023-05-10T06:02:41.859Z,1000.97
2023-05-10T06:03:42.166Z,1001.00
2023-05-10T06:04:44.716Z,1001.01
2023-05-10T06:05:41.762Z,1001.01
2023-05-10T06:06:41.789Z,1001.01
2023-05-10T06:07:41.800Z,1001.01
2023-05-10T06:08:41.821Z,1000.99
2023-05-10T06:09:41.750Z,1001.00
2023-05-10T06:10:41.761Z,1001.00
2023-05-10T06:11:41.736Z,1001.01
2023-05-10T06:12:42.503Z,1001.03
2023-05-10T06:13:41.680Z,1001.06
2023-05-10T06:14:41.723Z,1001.05
2023-05-10T06:15:41.701Z,1001.05
2023-05-10T06:16:41.735Z,1001.05
2023-05-10T06:17:42.722Z,1001.06
2023-05-10T06:18:41.617Z,1001.06
2023-05-10T06:19:41.672Z,1001.07
2023-05-10T06:20:41.667Z,1001.10
2023-05-10T06:21:41.893Z,1001.11
2023-05-10T06:22:41.593Z,1001.11
2023-05-10T06:23:41.648Z,1001.10
2023-05-10T06:24:41.563Z,1001.09
2023-05-10T06:25:41.561Z,1001.10
2023-05-10T06:26:41.560Z,1001.12
2023-05-10T06:27:41.609Z,1001.14
2023-05-10T06:28:41.590Z,1001.14
2023-05-10T06:29:41.531Z,1001.15
2023-05-10T06:30:41.544Z,1001.12
2023-05-10T06:31:41.559Z,1001.12
2023-05-10T06:32:41.605Z,1001.14
2023-05-10T06:33:41.560Z,1001.17
2023-05-10T06:34:41.704Z,1001.19
2023-05-10T06:35:41.535Z,1001.21
2023-05-10T06:36:41.468Z,1001.22
2023-05-10T06:37:41.551Z,1001.22
2023-05-10T06:38:41.424Z,1001.22
2023-05-10T06:39:41.505Z,1001.24
2023-05-10T06:40:41.505Z,1001.26
2023-05-10T06:41:41.419Z,1001.27
2023-05-10T06:42:41.408Z,1001.29
2023-05-10T06:43:41.417Z,1001.29
2023-05-10T06:44:41.430Z,1001.30
2023-05-10T06:45:41.388Z,1001.32
2023-05-10T06:46:41.385Z,1001.33
2023-05-10T06:47:41.389Z,1001.35
2023-05-10T06:48:41.350Z,1001.35
2023-05-10T06:49:41.379Z,1001.36
2023-05-10T06:50:41.318Z,1001.37
2023-05-10T06:51:41.369Z,1001.38
2023-05-10T06:52:41.263Z,1001.40
2023-05-10T06:53:41.294Z,1001.41
2023-05-10T06:54:41.294Z,1001.42
2023-05-10T06:55:41.307Z,1001.42
2023-05-10T06:56:41.251Z,1001.42
2023-05-10T06:57:41.329Z,1001.43
2023-05-10T06:58:41.211Z,1001.42
2023-05-10T06:59:41.386Z,1001.42
2023-05-10T07:00:41.463Z,1001.43
2023-05-10T07:01:41.284Z,1001.44
2023-05-10T07:02:41.286Z,1001.44
2023-05-10T07:03:41.239Z,1001.44
2023-05-10T07:04:41.167Z,1001.46
2023-05-10T07:05:41.258Z,1001.45
2023-05-10T07:06:41.259Z,1001.48
2023-05-10T07:07:41.178Z,1001.51
2023-05-10T07:08:41.580Z,1001.51
2023-05-10T07:09:41.150Z,1001.53
2023-05-10T07:10:41.111Z,1001.54
2023-05-10T07:11:41.245Z,1001.53
2023-05-10T07:12:41.209Z,1001.54
2023-05-10T07:13:41.597Z,1001.56
2023-05-10T07:14:41.070Z,1001.56
2023-05-10T07:15:41.079Z,1001.57
2023-05-10T07:16:41.089Z,1001.56
2023-05-10T07:17:43.238Z,1001.57
2023-05-10T07:18:41.098Z,1001.56
2023-05-10T07:19:41.150Z,1001.57
2023-05-10T07:20:41.046Z,1001.58
2023-05-10T07:21:41.447Z,1001.59
2023-05-10T07:22:41.183Z,1001.59
2023-05-10T07:23:42.982Z,1001.60
2023-05-10T07:24:41.119Z,1001.59
2023-05-10T07:25:41.124Z,1001.60
2023-05-10T07:26:41.021Z,1001.62
2023-05-10T07:27:41.020Z,1001.64
2023-05-10T07:28:40.920Z,1001.65
2023-05-10T07:29:41.021Z,1001.65
2023-05-10T07:30:41.021Z,1001.67
2023-05-10T07:31:41.102Z,1001.68
2023-05-10T07:32:40.894Z,1001.67
2023-05-10T07:33:40.978Z,1001.70
2023-05-10T07:34:41.030Z,1001.68
2023-05-10T07:35:40.865Z,1001.68
2023-05-10T07:36:40.824Z,1001.70
2023-05-10T07:37:40.820Z,1001.71
2023-05-10T07:38:41.188Z,1001.71
2023-05-10T07:39:40.864Z,1001.72
2023-05-10T07:40:40.811Z,1001.73
2023-05-10T07:41:40.776Z,1001.74
2023-05-10T07:42:40.798Z,1001.75
2023-05-10T07:43:40.922Z,1001.74
2023-05-10T07:44:40.745Z,1001.75
2023-05-10T07:45:40.839Z,1001.74
2023-05-10T07:46:40.737Z,1001.74
2023-05-10T07:47:40.765Z,1001.75
2023-05-10T07:48:40.945Z,1001.75
2023-05-10T07:49:40.725Z,1001.74
2023-05-10T07:50:40.831Z,1001.75
2023-05-10T07:51:40.716Z,1001.77
2023-05-10T07:52:40.642Z,1001.76
2023-05-10T07:53:40.688Z,1001.77
2023-05-10T07:54:40.708Z,1001.78
2023-05-10T07:55:40.659Z,1001.78
2023-05-10T07:56:40.872Z,1001.75
2023-05-10T07:57:40.628Z,1001.73
2023-05-10T07:58:40.830Z,1001.71
2023-05-10T07:59:40.640Z,1001.71
2023-05-10T08:00:40.628Z,1001.71
2023-05-10T08:01:40.770Z,1001.72
2023-05-10T08:02:41.380Z,1001.75
2023-05-10T08:03:40.695Z,1001.75
2023-05-10T08:04:40.776Z,1001.76
2023-05-10T08:05:40.534Z,1001.76
2023-05-10T08:06:40.494Z,1001.76
2023-05-10T08:07:40.548Z,1001.76
2023-05-10T08:08:40.547Z,1001.73
2023-05-10T08:09:40.564Z,1001.76
2023-05-10T08:10:40.808Z,1001.76
2023-05-10T08:11:40.497Z,1001.75
2023-05-10T08:12:40.470Z,1001.76
2023-05-10T08:13:40.427Z,1001.77
2023-05-10T08:14:40.644Z,1001.77
2023-05-10T08:15:40.458Z,1001.76
2023-05-10T08:16:40.616Z,1001.77
2023-05-10T08:17:40.491Z,1001.78
2023-05-10T08:18:40.558Z,1001.79
2023-05-10T08:19:41.441Z,1001.79
2023-05-10T08:20:40.390Z,1001.80
2023-05-10T08:21:40.447Z,1001.80
2023-05-10T08:22:40.484Z,1001.79
2023-05-10T08:23:40.340Z,1001.79
2023-05-10T08:24:40.555Z,1001.78
2023-05-10T08:25:40.303Z,1001.77
2023-05-10T08:26:40.413Z,1001.79
2023-05-10T08:27:40.294Z,1001.79
2023-05-10T08:28:40.436Z,1001.80
2023-05-10T08:29:49.437Z,1001.81
2023-05-10T08:30:40.401Z,1001.80
2023-05-10T08:31:40.379Z,1001.81
2023-05-10T08:32:40.615Z,1001.80
2023-05-10T08:33:42.077Z,1001.79
2023-05-10T08:34:40.260Z,1001.79
2023-05-10T08:35:40.269Z,1001.79
2023-05-10T08:36:40.386Z,1001.80
2023-05-10T08:37:40.241Z,1001.79
2023-05-10T08:38:40.659Z,1001.82
2023-05-10T08:39:40.185Z,1001.83
2023-05-10T08:40:40.137Z,1001.83
2023-05-10T08:41:40.198Z,1001.84
2023-05-10T08:42:40.209Z,1001.85
2023-05-10T08:43:40.160Z,1001.87
2023-05-10T08:44:40.101Z,1001.85
2023-05-10T08:45:40.101Z,1001.87
2023-05-10T08:46:40.119Z,1001.88
2023-05-10T08:47:40.194Z,1001.88
2023-05-10T08:48:40.124Z,1001.89
2023-05-10T08:49:40.053Z,1001.91
2023-05-10T08:50:40.053Z,1001.93
2023-05-10T08:51:41.259Z,1001.96
2023-05-10T08:52:40.145Z,1001.97
2023-05-10T08:53:40.096Z,1001.99
2023-05-10T08:54:40.012Z,1002.01
2023-05-10T08:55:40.035Z,1002.00
2023-05-10T08:56:40.016Z,1002.02
2023-05-10T08:57:40.265Z,1002.01
2023-05-10T08:58:39.956Z,1002.01
2023-05-10T08:59:40.754Z,1002.02
2023-05-10T09:00:39.984Z,1002.02
2023-05-10T09:01:40.552Z,1002.04
2023-05-10T09:02:40.028Z,1002.06
2023-05-10T09:03:39.943Z,1002.05
2023-05-10T09:04:40.101Z,1002.05
2023-05-10T09:05:39.879Z,1002.06
2023-05-10T09:06:40.393Z,1002.08
2023-05-10T09:07:40.690Z,1002.10
2023-05-10T09:08:39.874Z,1002.12
2023-05-10T09:09:39.883Z,1002.12
2023-05-10T09:10:39.837Z,1002.13
2023-05-10T09:11:39.843Z,1002.14
2023-05-10T09:12:40.180Z,1002.16
2023-05-10T09:13:39.878Z,1002.15
2023-05-10T09:14:39.829Z,1002.14
2023-05-10T09:15:39.802Z,1002.13
2023-05-10T09:16:39.833Z,1002.14
2023-05-10T09:17:39.953Z,1002.13
2023-05-10T09:18:39.993Z,1002.13
2023-05-10T09:19:39.722Z,1002.14
2023-05-10T09:20:39.910Z,1002.14
2023-05-10T09:21:40.171Z,1002.15
2023-05-10T09:22:39.729Z,1002.16
2023-05-10T09:23:39.736Z,1002.16
2023-05-10T09:24:39.700Z,1002.17
2023-05-10T09:25:39.883Z,1002.19
2023-05-10T09:26:39.893Z,1002.20
2023-05-10T09:27:39.690Z,1002.25
2023-05-10T09:28:39.736Z,1002.30
2023-05-10T09:29:39.662Z,1002.40
2023-05-10T09:30:39.872Z,1002.43
2023-05-10T09:31:39.769Z,1002.49
2023-05-10T09:32:40.054Z,1002.46
2023-05-10T09:33:40.298Z,1002.49
2023-05-10T09:34:40.195Z,1002.48
2023-05-10T09:35:40.213Z,1002.46
2023-05-10T09:36:39.660Z,1002.46
2023-05-10T09:37:40.180Z,1002.48
2023-05-10T09:38:39.560Z,1002.46
2023-05-10T09:39:39.536Z,1002.45
2023-05-10T09:40:39.662Z,1002.45
2023-05-10T09:41:39.969Z,1002.45
2023-05-10T09:42:39.677Z,1002.44
2023-05-10T09:43:39.494Z,1002.44
2023-05-10T09:44:39.538Z,1002.43
2023-05-10T09:45:39.549Z,1002.44
2023-05-10T09:46:39.588Z,1002.44
2023-05-10T09:47:39.557Z,1002.44
2023-05-10T09:48:39.482Z,1002.42
2023-05-10T09:49:40.403Z,1002.40
2023-05-10T09:50:39.498Z,1002.40
2023-05-10T09:51:39.498Z,1002.40
2023-05-10T09:52:39.797Z,1002.39
2023-05-10T09:53:39.683Z,1002.38
2023-05-10T09:54:39.388Z,1002.37
2023-05-10T09:55:39.368Z,1002.37
2023-05-10T09:56:39.422Z,1002.35
2023-05-10T09:57:39.474Z,1002.34
2023-05-10T09:58:40.111Z,1002.33
2023-05-10T09:59:39.419Z,1002.34
2023-05-10T10:00:39.425Z,1002.34
2023-05-10T10:01:39.504Z,1002.35
2023-05-10T10:02:39.718Z,1002.37
2023-05-10T10:03:40.353Z,1002.38
2023-05-10T10:04:39.339Z,1002.38
2023-05-10T10:05:39.305Z,1002.38
2023-05-10T10:06:39.522Z,1002.38
2023-05-10T10:07:39.418Z,1002.35
2023-05-10T10:08:39.246Z,1002.37
2023-05-10T10:09:39.316Z,1002.38
2023-05-10T10:10:39.243Z,1002.33
2023-05-10T10:11:39.346Z,1002.35
2023-05-10T10:12:39.366Z,1002.35
2023-05-10T10:13:39.197Z,1002.35
2023-05-10T10:14:39.235Z,1002.36
2023-05-10T10:15:39.205Z,1002.34
2023-05-10T10:16:48.433Z,1002.33
2023-05-10T10:17:39.257Z,1002.35
2023-05-10T10:18:39.176Z,1002.37
2023-05-10T10:19:46.748Z,1002.35
2023-05-10T10:20:39.095Z,1002.35
2023-05-10T10:21:39.756Z,1002.34
2023-05-10T10:22:39.088Z,1002.35
2023-05-10T10:23:39.091Z,1002.33
2023-05-10T10:24:39.226Z,1002.34
2023-05-10T10:25:39.064Z,1002.34
2023-05-10T10:26:39.174Z,1002.34
2023-05-10T10:27:39.113Z,1002.34
2023-05-10T10:28:39.054Z,1002.35
2023-05-10T10:29:39.136Z,1002.36
2023-05-10T10:30:39.070Z,1002.34
2023-05-10T10:31:39.186Z,1002.37
2023-05-10T10:32:39.258Z,1002.38
2023-05-10T10:33:39.225Z,1002.37
2023-05-10T10:34:39.065Z,1002.37
2023-05-10T10:35:39.179Z,1002.39
2023-05-10T10:36:38.985Z,1002.37
2023-05-10T10:37:39.014Z,1002.41
2023-05-10T10:38:38.988Z,1002.41
2023-05-10T10:39:39.083Z,1002.44
2023-05-10T10:40:38.926Z,1002.48
2023-05-10T10:41:38.935Z,1002.48
2023-05-10T10:42:38.872Z,1002.52
2023-05-10T10:43:38.930Z,1002.49
2023-05-10T10:44:39.111Z,1002.52
2023-05-10T10:45:39.722Z,1002.53
2023-05-10T10:46:39.098Z,1002.54
2023-05-10T10:47:38.933Z,1002.51
2023-05-10T10:48:38.915Z,1002.53
2023-05-10T10:49:38.840Z,1002.52
2023-05-10T10:50:38.922Z,1002.53
2023-05-10T10:51:38.938Z,1002.53
2023-05-10T10:52:38.821Z,1002.53
2023-05-10T10:53:39.805Z,1002.53
2023-05-10T10:54:38.934Z,1002.50
2023-05-10T10:55:38.756Z,1002.49
2023-05-10T10:56:38.955Z,1002.50
2023-05-10T10:57:38.762Z,1002.48
2023-05-10T10:58:38.939Z,1002.49
2023-05-10T10:59:38.810Z,1002.52
2023-05-10T11:00:38.811Z,1002.53
2023-05-10T11:01:38.877Z,1002.55
2023-05-10T11:02:38.885Z,1002.53
2023-05-10T11:03:38.700Z,1002.54
2023-05-10T11:04:38.799Z,1002.56
2023-05-10T11:05:38.899Z,1002.55
2023-05-10T11:06:38.690Z,1002.58
2023-05-10T11:07:38.829Z,1002.58
2023-05-10T11:08:38.690Z,1002.56
2023-05-10T11:09:38.707Z,1002.58
2023-05-10T11:10:38.702Z,1002.57
2023-05-10T11:11:38.698Z,1002.57
2023-05-10T11:12:38.742Z,1002.54
2023-05-10T11:13:38.638Z,1002.53
2023-05-10T11:14:38.679Z,1002.53
2023-05-10T11:15:38.889Z,1002.52
2023-05-10T11:16:38.722Z,1002.52
2023-05-10T11:17:38.581Z,1002.51
2023-05-10T11:18:38.584Z,1002.51
2023-05-10T11:19:39.831Z,1002.52
2023-05-10T11:20:38.564Z,1002.51
2023-05-10T11:21:38.553Z,1002.50
2023-05-10T11:22:38.486Z,1002.48
2023-05-10T11:23:38.494Z,1002.48
2023-05-10T11:24:38.550Z,1002.45
2023-05-10T11:25:38.511Z,1002.44
2023-05-10T11:26:38.470Z,1002.44
2023-05-10T11:27:38.456Z,1002.46
2023-05-10T11:28:38.596Z,1002.45
2023-05-10T11:29:38.526Z,1002.49
2023-05-10T11:30:38.524Z,1002.46
2023-05-10T11:31:38.618Z,1002.44
2023-05-10T11:32:38.656Z,1002.45
2023-05-10T11:33:38.438Z,1002.42
2023-05-10T11:34:38.653Z,1002.42
2023-05-10T11:35:39.096Z,1002.43
2023-05-10T11:36:38.358Z,1002.44
2023-05-10T11:37:38.322Z,1002.47
2023-05-10T11:38:38.478Z,1002.42
2023-05-10T11:39:38.545Z,1002.42
2023-05-10T11:40:38.323Z,1002.43
2023-05-10T11:41:38.309Z,1002.45
2023-05-10T11:42:38.302Z,1002.42
2023-05-10T11:43:38.358Z,1002.46
2023-05-10T11:44:38.255Z,1002.49
2023-05-10T11:45:38.393Z,1002.52
2023-05-10T11:46:38.417Z,1002.52
2023-05-10T11:47:38.347Z,1002.51
2023-05-10T11:48:38.222Z,1002.53
2023-05-10T11:49:38.263Z,1002.55
2023-05-10T11:50:38.197Z,1002.52
2023-05-10T11:51:38.413Z,1002.50
2023-05-10T11:52:38.132Z,1002.50
2023-05-10T11:53:38.206Z,1002.51
2023-05-10T11:54:38.146Z,1002.52
2023-05-10T11:55:38.212Z,1002.49
2023-05-10T11:56:38.114Z,1002.51
2023-05-10T11:57:38.160Z,1002.51
2023-05-10T11:58:38.263Z,1002.54
2023-05-10T11:59:38.102Z,1002.53
2023-05-10T12:00:38.359Z,1002.54
2023-05-10T12:01:38.182Z,1002.57
2023-05-10T12:02:38.171Z,1002.54
2023-05-10T12:03:38.175Z,1002.59
2023-05-10T12:04:38.578Z,1002.57
2023-05-10T12:05:38.072Z,1002.53
2023-05-10T12:06:38.080Z,1002.56
2023-05-10T12:07:38.086Z,1002.58
2023-05-10T12:08:38.003Z,1002.60
2023-05-10T12:09:43.724Z,1002.63
2023-05-10T12:10:38.086Z,1002.62